sensor_id;sensor_type;location;lat;lon;timestamp;P1;durP1;ratioP1;P2;durP2;ratioP2
22929;SDS011;11630;42.660;23.292;2022-12-07T00:00:33;61.73;;;32.47;;
22929;SDS011;11630;42.660;23.292;2022-12-07T00:03:04;56.90;;;31.13;;
22929;SDS011;11630;42.660;23.292;2022-12-07T00:05:34;52.00;;;31.73;;
22929;SDS011;11630;42.660;23.292;2022-12-07T00:08:05;55.43;;;30.73;;
22929;SDS011;11630;42.660;23.292;2022-12-07T00:10:36;51.27;;;31.20;;
22929;SDS011;11630;42.660;23.292;2022-12-07T00:13:08;62.20;;;34.27;;
22929;SDS011;11630;42.660;23.292;2022-12-07T00:15:39;52.70;;;31.77;;
22929;SDS011;11630;42.660;23.292;2022-12-07T00:18:10;55.20;;;30.67;;
22929;SDS011;11630;42.660;23.292;2022-12-07T00:20:40;54.20;;;33.67;;
22929;SDS011;11630;42.660;23.292;2022-12-07T00:23:10;52.27;;;34.23;;
22929;SDS011;11630;42.660;23.292;2022-12-07T00:25:41;63.23;;;32.57;;
22929;SDS011;11630;42.660;23.292;2022-12-07T00:28:13;56.03;;;32.97;;
22929;SDS011;11630;42.660;23.292;2022-12-07T00:30:44;55.93;;;30.73;;
22929;SDS011;11630;42.660;23.292;2022-12-07T00:33:14;49.37;;;29.93;;
22929;SDS011;11630;42.660;23.292;2022-12-07T00:35:44;53.47;;;29.90;;
22929;SDS011;11630;42.660;23.292;2022-12-07T00:38:15;59.00;;;32.43;;
22929;SDS011;11630;42.660;23.292;2022-12-07T00:40:53;57.70;;;33.07;;
22929;SDS011;11630;42.660;23.292;2022-12-07T00:43:25;55.07;;;33.30;;
22929;SDS011;11630;42.660;23.292;2022-12-07T00:45:55;66.23;;;36.07;;
22929;SDS011;11630;42.660;23.292;2022-12-07T00:48:25;58.10;;;36.40;;
22929;SDS011;11630;42.660;23.292;2022-12-07T00:50:55;60.27;;;36.40;;
22929;SDS011;11630;42.660;23.292;2022-12-07T00:53:26;55.70;;;34.20;;
22929;SDS011;11630;42.660;23.292;2022-12-07T00:55:57;49.33;;;33.50;;
22929;SDS011;11630;42.660;23.292;2022-12-07T00:58:28;59.50;;;33.10;;
22929;SDS011;11630;42.660;23.292;2022-12-07T01:01:00;58.77;;;30.20;;
22929;SDS011;11630;42.660;23.292;2022-12-07T01:03:31;58.40;;;31.77;;
22929;SDS011;11630;42.660;23.292;2022-12-07T01:06:04;49.33;;;30.73;;
22929;SDS011;11630;42.660;23.292;2022-12-07T01:08:36;52.93;;;30.20;;
22929;SDS011;11630;42.660;23.292;2022-12-07T01:11:07;54.67;;;29.93;;
22929;SDS011;11630;42.660;23.292;2022-12-07T01:13:38;50.33;;;30.93;;
22929;SDS011;11630;42.660;23.292;2022-12-07T01:16:10;48.33;;;30.87;;
22929;SDS011;11630;42.660;23.292;2022-12-07T01:18:45;50.67;;;30.60;;
22929;SDS011;11630;42.660;23.292;2022-12-07T01:21:16;51.13;;;30.53;;
22929;SDS011;11630;42.660;23.292;2022-12-07T01:23:49;53.87;;;29.33;;
22929;SDS011;11630;42.660;23.292;2022-12-07T01:26:21;69.63;;;32.77;;
22929;SDS011;11630;42.660;23.292;2022-12-07T01:28:52;52.63;;;31.37;;
22929;SDS011;11630;42.660;23.292;2022-12-07T01:31:24;48.77;;;30.67;;
22929;SDS011;11630;42.660;23.292;2022-12-07T01:33:56;51.90;;;30.67;;
22929;SDS011;11630;42.660;23.292;2022-12-07T01:36:34;50.67;;;31.43;;
22929;SDS011;11630;42.660;23.292;2022-12-07T01:39:02;50.20;;;29.90;;
22929;SDS011;11630;42.660;23.292;2022-12-07T01:41:36;56.33;;;32.40;;
22929;SDS011;11630;42.660;23.292;2022-12-07T01:44:16;61.87;;;32.03;;
22929;SDS011;11630;42.660;23.292;2022-12-07T01:46:52;51.80;;;30.17;;
22929;SDS011;11630;42.660;23.292;2022-12-07T01:49:35;51.83;;;30.53;;
22929;SDS011;11630;42.660;23.292;2022-12-07T01:54:57;57.23;;;32.47;;
22929;SDS011;11630;42.660;23.292;2022-12-07T01:57:28;49.23;;;31.20;;
22929;SDS011;11630;42.660;23.292;2022-12-07T02:00:01;53.90;;;31.43;;
22929;SDS011;11630;42.660;23.292;2022-12-07T02:02:34;46.50;;;29.70;;
22929;SDS011;11630;42.660;23.292;2022-12-07T02:05:11;47.90;;;30.27;;
22929;SDS011;11630;42.660;23.292;2022-12-07T02:07:42;53.93;;;30.30;;
22929;SDS011;11630;42.660;23.292;2022-12-07T02:10:17;51.03;;;30.30;;
22929;SDS011;11630;42.660;23.292;2022-12-07T02:12:53;44.80;;;28.23;;
22929;SDS011;11630;42.660;23.292;2022-12-07T02:15:28;54.10;;;30.30;;
22929;SDS011;11630;42.660;23.292;2022-12-07T02:18:07;55.30;;;30.53;;
22929;SDS011;11630;42.660;23.292;2022-12-07T02:23:22;49.93;;;29.87;;
22929;SDS011;11630;42.660;23.292;2022-12-07T02:28:37;53.43;;;30.97;;
22929;SDS011;11630;42.660;23.292;2022-12-07T02:31:25;53.07;;;29.43;;
22929;SDS011;11630;42.660;23.292;2022-12-07T02:36:55;46.93;;;29.17;;
22929;SDS011;11630;42.660;23.292;2022-12-07T02:42:10;47.13;;;29.10;;
22929;SDS011;11630;42.660;23.292;2022-12-07T02:44:40;54.73;;;32.37;;
22929;SDS011;11630;42.660;23.292;2022-12-07T02:47:13;50.10;;;29.47;;
22929;SDS011;11630;42.660;23.292;2022-12-07T02:49:45;51.27;;;30.17;;
22929;SDS011;11630;42.660;23.292;2022-12-07T02:52:17;52.43;;;30.27;;
22929;SDS011;11630;42.660;23.292;2022-12-07T02:54:47;50.33;;;29.17;;
22929;SDS011;11630;42.660;23.292;2022-12-07T02:57:35;47.67;;;29.60;;
22929;SDS011;11630;42.660;23.292;2022-12-07T03:00:14;49.80;;;27.83;;
22929;SDS011;11630;42.660;23.292;2022-12-07T03:03:00;50.63;;;29.33;;
22929;SDS011;11630;42.660;23.292;2022-12-07T03:11:05;46.30;;;28.13;;
22929;SDS011;11630;42.660;23.292;2022-12-07T03:13:39;51.73;;;29.67;;
22929;SDS011;11630;42.660;23.292;2022-12-07T03:16:31;48.33;;;27.77;;
22929;SDS011;11630;42.660;23.292;2022-12-07T03:19:13;45.10;;;26.83;;
22929;SDS011;11630;42.660;23.292;2022-12-07T03:21:48;46.53;;;28.17;;
22929;SDS011;11630;42.660;23.292;2022-12-07T03:24:29;39.67;;;25.40;;
22929;SDS011;11630;42.660;23.292;2022-12-07T03:27:03;42.00;;;26.77;;
22929;SDS011;11630;42.660;23.292;2022-12-07T03:29:35;43.87;;;26.40;;
22929;SDS011;11630;42.660;23.292;2022-12-07T03:32:08;42.47;;;25.17;;
22929;SDS011;11630;42.660;23.292;2022-12-07T03:34:40;39.27;;;25.50;;
22929;SDS011;11630;42.660;23.292;2022-12-07T03:37:15;43.37;;;25.40;;
22929;SDS011;11630;42.660;23.292;2022-12-07T03:40:01;46.27;;;26.17;;
22929;SDS011;11630;42.660;23.292;2022-12-07T03:42:45;44.30;;;25.13;;
22929;SDS011;11630;42.660;23.292;2022-12-07T03:45:16;39.50;;;23.80;;
22929;SDS011;11630;42.660;23.292;2022-12-07T03:47:53;42.93;;;25.17;;
22929;SDS011;11630;42.660;23.292;2022-12-07T03:52:59;47.67;;;25.73;;
22929;SDS011;11630;42.660;23.292;2022-12-07T03:55:49;41.13;;;24.30;;
22929;SDS011;11630;42.660;23.292;2022-12-07T03:58:21;39.20;;;24.90;;
22929;SDS011;11630;42.660;23.292;2022-12-07T04:00:56;38.23;;;24.73;;
22929;SDS011;11630;42.660;23.292;2022-12-07T04:03:29;40.50;;;23.77;;
22929;SDS011;11630;42.660;23.292;2022-12-07T04:05:58;37.63;;;24.47;;
22929;SDS011;11630;42.660;23.292;2022-12-07T04:08:29;45.67;;;25.73;;
22929;SDS011;11630;42.660;23.292;2022-12-07T04:11:00;42.97;;;26.13;;
22929;SDS011;11630;42.660;23.292;2022-12-07T04:13:30;46.53;;;25.37;;
22929;SDS011;11630;42.660;23.292;2022-12-07T04:16:01;46.33;;;28.50;;
22929;SDS011;11630;42.660;23.292;2022-12-07T04:18:32;51.30;;;29.60;;
22929;SDS011;11630;42.660;23.292;2022-12-07T04:21:03;44.60;;;28.63;;
22929;SDS011;11630;42.660;23.292;2022-12-07T04:23:34;46.43;;;27.87;;
22929;SDS011;11630;42.660;23.292;2022-12-07T04:26:08;48.87;;;28.23;;
22929;SDS011;11630;42.660;23.292;2022-12-07T04:28:39;42.53;;;26.73;;
22929;SDS011;11630;42.660;23.292;2022-12-07T04:31:10;43.93;;;27.30;;
22929;SDS011;11630;42.660;23.292;2022-12-07T04:33:41;49.67;;;27.40;;
22929;SDS011;11630;42.660;23.292;2022-12-07T04:36:11;41.63;;;26.60;;
22929;SDS011;11630;42.660;23.292;2022-12-07T04:38:42;44.57;;;25.87;;
22929;SDS011;11630;42.660;23.292;2022-12-07T04:41:12;45.00;;;26.40;;
22929;SDS011;11630;42.660;23.292;2022-12-07T04:43:43;45.83;;;27.43;;
22929;SDS011;11630;42.660;23.292;2022-12-07T04:46:14;45.07;;;28.70;;
22929;SDS011;11630;42.660;23.292;2022-12-07T04:48:45;44.37;;;27.17;;
22929;SDS011;11630;42.660;23.292;2022-12-07T04:51:17;54.37;;;28.87;;
22929;SDS011;11630;42.660;23.292;2022-12-07T04:53:54;49.97;;;29.67;;
22929;SDS011;11630;42.660;23.292;2022-12-07T04:56:25;56.13;;;30.17;;
22929;SDS011;11630;42.660;23.292;2022-12-07T04:58:58;45.87;;;28.10;;
22929;SDS011;11630;42.660;23.292;2022-12-07T05:01:30;51.40;;;30.83;;
22929;SDS011;11630;42.660;23.292;2022-12-07T05:04:01;49.57;;;29.07;;
22929;SDS011;11630;42.660;23.292;2022-12-07T05:06:32;45.07;;;26.53;;
22929;SDS011;11630;42.660;23.292;2022-12-07T05:09:02;46.60;;;27.97;;
22929;SDS011;11630;42.660;23.292;2022-12-07T05:11:32;43.13;;;26.47;;
22929;SDS011;11630;42.660;23.292;2022-12-07T05:14:13;45.20;;;29.00;;
22929;SDS011;11630;42.660;23.292;2022-12-07T05:16:44;42.47;;;27.77;;
22929;SDS011;11630;42.660;23.292;2022-12-07T05:19:16;52.87;;;28.27;;
22929;SDS011;11630;42.660;23.292;2022-12-07T05:21:46;47.83;;;28.90;;
22929;SDS011;11630;42.660;23.292;2022-12-07T05:24:17;44.53;;;27.93;;
22929;SDS011;11630;42.660;23.292;2022-12-07T05:26:47;44.73;;;27.80;;
22929;SDS011;11630;42.660;23.292;2022-12-07T05:29:18;49.30;;;26.83;;
22929;SDS011;11630;42.660;23.292;2022-12-07T05:31:49;47.57;;;28.47;;
22929;SDS011;11630;42.660;23.292;2022-12-07T05:34:20;49.60;;;30.17;;
22929;SDS011;11630;42.660;23.292;2022-12-07T05:36:50;41.90;;;27.27;;
22929;SDS011;11630;42.660;23.292;2022-12-07T05:39:21;47.93;;;27.67;;
22929;SDS011;11630;42.660;23.292;2022-12-07T05:41:52;44.57;;;26.17;;
22929;SDS011;11630;42.660;23.292;2022-12-07T05:44:42;49.00;;;26.47;;
22929;SDS011;11630;42.660;23.292;2022-12-07T05:47:13;45.47;;;28.00;;
22929;SDS011;11630;42.660;23.292;2022-12-07T05:49:44;47.43;;;27.47;;
22929;SDS011;11630;42.660;23.292;2022-12-07T05:52:15;49.90;;;27.07;;
22929;SDS011;11630;42.660;23.292;2022-12-07T05:54:45;50.07;;;28.63;;
22929;SDS011;11630;42.660;23.292;2022-12-07T05:57:16;44.37;;;27.57;;
22929;SDS011;11630;42.660;23.292;2022-12-07T05:59:47;48.27;;;27.17;;
22929;SDS011;11630;42.660;23.292;2022-12-07T06:02:17;52.23;;;28.27;;
22929;SDS011;11630;42.660;23.292;2022-12-07T06:04:47;51.10;;;26.60;;
22929;SDS011;11630;42.660;23.292;2022-12-07T06:07:17;48.33;;;28.37;;
22929;SDS011;11630;42.660;23.292;2022-12-07T06:09:48;41.47;;;26.97;;
22929;SDS011;11630;42.660;23.292;2022-12-07T06:12:19;43.97;;;27.00;;
22929;SDS011;11630;42.660;23.292;2022-12-07T06:15:02;36.10;;;24.63;;
22929;SDS011;11630;42.660;23.292;2022-12-07T06:17:34;45.80;;;25.77;;
22929;SDS011;11630;42.660;23.292;2022-12-07T06:20:06;47.00;;;28.07;;
22929;SDS011;11630;42.660;23.292;2022-12-07T06:22:36;44.67;;;26.53;;
22929;SDS011;11630;42.660;23.292;2022-12-07T06:25:07;44.70;;;26.07;;
22929;SDS011;11630;42.660;23.292;2022-12-07T06:27:37;48.83;;;26.87;;
22929;SDS011;11630;42.660;23.292;2022-12-07T06:30:08;49.17;;;27.00;;
22929;SDS011;11630;42.660;23.292;2022-12-07T06:32:38;48.33;;;27.20;;
22929;SDS011;11630;42.660;23.292;2022-12-07T06:35:10;51.77;;;28.43;;
22929;SDS011;11630;42.660;23.292;2022-12-07T06:37:40;44.80;;;28.30;;
22929;SDS011;11630;42.660;23.292;2022-12-07T06:40:11;45.60;;;26.40;;
22929;SDS011;11630;42.660;23.292;2022-12-07T06:42:42;44.70;;;26.67;;
22929;SDS011;11630;42.660;23.292;2022-12-07T06:45:13;47.20;;;26.97;;
22929;SDS011;11630;42.660;23.292;2022-12-07T06:47:44;43.40;;;26.47;;
22929;SDS011;11630;42.660;23.292;2022-12-07T06:50:15;47.73;;;26.97;;
22929;SDS011;11630;42.660;23.292;2022-12-07T06:52:45;45.57;;;28.27;;
22929;SDS011;11630;42.660;23.292;2022-12-07T06:55:16;51.87;;;28.87;;
22929;SDS011;11630;42.660;23.292;2022-12-07T06:57:46;38.70;;;21.63;;
22929;SDS011;11630;42.660;23.292;2022-12-07T07:00:16;48.57;;;25.57;;
22929;SDS011;11630;42.660;23.292;2022-12-07T07:02:47;37.67;;;24.13;;
22929;SDS011;11630;42.660;23.292;2022-12-07T07:05:19;42.23;;;25.67;;
22929;SDS011;11630;42.660;23.292;2022-12-07T07:07:48;49.23;;;29.30;;
22929;SDS011;11630;42.660;23.292;2022-12-07T07:10:19;43.67;;;27.87;;
22929;SDS011;11630;42.660;23.292;2022-12-07T07:12:50;47.10;;;27.60;;
22929;SDS011;11630;42.660;23.292;2022-12-07T07:15:20;42.00;;;27.07;;
22929;SDS011;11630;42.660;23.292;2022-12-07T07:17:51;54.70;;;28.80;;
22929;SDS011;11630;42.660;23.292;2022-12-07T07:20:22;56.40;;;29.83;;
22929;SDS011;11630;42.660;23.292;2022-12-07T07:22:55;49.00;;;29.37;;
22929;SDS011;11630;42.660;23.292;2022-12-07T07:25:25;52.70;;;28.63;;
22929;SDS011;11630;42.660;23.292;2022-12-07T07:27:55;58.47;;;31.97;;
22929;SDS011;11630;42.660;23.292;2022-12-07T07:30:26;54.83;;;31.53;;
22929;SDS011;11630;42.660;23.292;2022-12-07T07:32:57;61.13;;;33.43;;
22929;SDS011;11630;42.660;23.292;2022-12-07T07:35:28;65.13;;;36.70;;
22929;SDS011;11630;42.660;23.292;2022-12-07T07:38:00;55.73;;;33.87;;
22929;SDS011;11630;42.660;23.292;2022-12-07T07:40:30;64.00;;;36.30;;
22929;SDS011;11630;42.660;23.292;2022-12-07T07:43:01;64.30;;;36.00;;
22929;SDS011;11630;42.660;23.292;2022-12-07T07:45:31;70.20;;;36.23;;
22929;SDS011;11630;42.660;23.292;2022-12-07T07:48:01;60.47;;;35.87;;
22929;SDS011;11630;42.660;23.292;2022-12-07T07:50:32;63.10;;;35.47;;
22929;SDS011;11630;42.660;23.292;2022-12-07T07:53:03;68.93;;;35.13;;
22929;SDS011;11630;42.660;23.292;2022-12-07T07:55:34;74.17;;;35.77;;
22929;SDS011;11630;42.660;23.292;2022-12-07T07:58:05;60.77;;;35.53;;
22929;SDS011;11630;42.660;23.292;2022-12-07T08:00:36;66.73;;;35.70;;
22929;SDS011;11630;42.660;23.292;2022-12-07T08:03:07;64.70;;;35.03;;
22929;SDS011;11630;42.660;23.292;2022-12-07T08:05:38;62.93;;;37.97;;
22929;SDS011;11630;42.660;23.292;2022-12-07T08:08:14;66.07;;;38.30;;
22929;SDS011;11630;42.660;23.292;2022-12-07T08:10:45;64.03;;;37.03;;
22929;SDS011;11630;42.660;23.292;2022-12-07T08:13:16;68.83;;;37.37;;
22929;SDS011;11630;42.660;23.292;2022-12-07T08:15:48;59.07;;;33.77;;
22929;SDS011;11630;42.660;23.292;2022-12-07T08:18:18;64.00;;;34.73;;
22929;SDS011;11630;42.660;23.292;2022-12-07T08:20:49;61.23;;;35.87;;
22929;SDS011;11630;42.660;23.292;2022-12-07T08:23:20;69.83;;;37.73;;
22929;SDS011;11630;42.660;23.292;2022-12-07T08:25:51;59.10;;;34.60;;
22929;SDS011;11630;42.660;23.292;2022-12-07T08:28:21;50.17;;;30.50;;
22929;SDS011;11630;42.660;23.292;2022-12-07T08:30:52;58.30;;;30.47;;
22929;SDS011;11630;42.660;23.292;2022-12-07T08:33:36;48.20;;;30.07;;
22929;SDS011;11630;42.660;23.292;2022-12-07T08:36:10;59.70;;;30.63;;
22929;SDS011;11630;42.660;23.292;2022-12-07T08:38:41;51.93;;;30.73;;
22929;SDS011;11630;42.660;23.292;2022-12-07T08:41:11;51.70;;;29.97;;
22929;SDS011;11630;42.660;23.292;2022-12-07T08:43:42;44.77;;;29.83;;
22929;SDS011;11630;42.660;23.292;2022-12-07T08:46:14;58.07;;;31.97;;
22929;SDS011;11630;42.660;23.292;2022-12-07T08:48:52;56.47;;;30.57;;
22929;SDS011;11630;42.660;23.292;2022-12-07T08:51:24;49.77;;;30.10;;
22929;SDS011;11630;42.660;23.292;2022-12-07T08:53:55;53.93;;;31.53;;
22929;SDS011;11630;42.660;23.292;2022-12-07T08:56:29;56.33;;;30.63;;
22929;SDS011;11630;42.660;23.292;2022-12-07T08:59:00;52.93;;;33.27;;
22929;SDS011;11630;42.660;23.292;2022-12-07T09:01:30;52.70;;;29.93;;
22929;SDS011;11630;42.660;23.292;2022-12-07T09:04:02;46.03;;;29.23;;
22929;SDS011;11630;42.660;23.292;2022-12-07T09:06:33;48.37;;;29.43;;
22929;SDS011;11630;42.660;23.292;2022-12-07T09:09:04;45.97;;;28.93;;
22929;SDS011;11630;42.660;23.292;2022-12-07T09:11:36;54.17;;;29.93;;
22929;SDS011;11630;42.660;23.292;2022-12-07T09:14:07;52.23;;;29.47;;
22929;SDS011;11630;42.660;23.292;2022-12-07T09:16:38;48.10;;;28.27;;
22929;SDS011;11630;42.660;23.292;2022-12-07T09:19:09;50.87;;;29.53;;
22929;SDS011;11630;42.660;23.292;2022-12-07T09:21:43;61.27;;;30.43;;
22929;SDS011;11630;42.660;23.292;2022-12-07T09:24:14;47.17;;;27.47;;
22929;SDS011;11630;42.660;23.292;2022-12-07T09:26:45;49.23;;;29.83;;
22929;SDS011;11630;42.660;23.292;2022-12-07T09:29:16;52.47;;;30.17;;
22929;SDS011;11630;42.660;23.292;2022-12-07T09:31:49;50.33;;;27.80;;
22929;SDS011;11630;42.660;23.292;2022-12-07T09:34:20;52.63;;;30.57;;
22929;SDS011;11630;42.660;23.292;2022-12-07T09:36:50;49.93;;;29.20;;
22929;SDS011;11630;42.660;23.292;2022-12-07T09:39:20;50.07;;;29.83;;
22929;SDS011;11630;42.660;23.292;2022-12-07T09:41:51;53.60;;;30.13;;
22929;SDS011;11630;42.660;23.292;2022-12-07T09:44:27;48.07;;;29.73;;
22929;SDS011;11630;42.660;23.292;2022-12-07T09:46:54;50.17;;;29.77;;
22929;SDS011;11630;42.660;23.292;2022-12-07T09:49:27;60.87;;;30.47;;
22929;SDS011;11630;42.660;23.292;2022-12-07T09:52:02;61.17;;;30.90;;
22929;SDS011;11630;42.660;23.292;2022-12-07T09:54:45;54.30;;;28.93;;
22929;SDS011;11630;42.660;23.292;2022-12-07T09:57:25;49.37;;;27.03;;
22929;SDS011;11630;42.660;23.292;2022-12-07T09:59:51;48.93;;;27.50;;
22929;SDS011;11630;42.660;23.292;2022-12-07T10:02:23;52.97;;;28.83;;
22929;SDS011;11630;42.660;23.292;2022-12-07T10:05:11;44.70;;;28.23;;
22929;SDS011;11630;42.660;23.292;2022-12-07T10:07:35;55.33;;;28.87;;
22929;SDS011;11630;42.660;23.292;2022-12-07T10:10:09;42.80;;;26.47;;
22929;SDS011;11630;42.660;23.292;2022-12-07T10:12:55;49.83;;;27.63;;
22929;SDS011;11630;42.660;23.292;2022-12-07T10:15:45;56.47;;;27.53;;
22929;SDS011;11630;42.660;23.292;2022-12-07T10:18:25;51.30;;;27.57;;
22929;SDS011;11630;42.660;23.292;2022-12-07T10:21:00;62.20;;;30.73;;
22929;SDS011;11630;42.660;23.292;2022-12-07T10:23:34;50.40;;;28.63;;
22929;SDS011;11630;42.660;23.292;2022-12-07T10:26:26;49.57;;;28.87;;
22929;SDS011;11630;42.660;23.292;2022-12-07T10:29:01;57.27;;;30.97;;
22929;SDS011;11630;42.660;23.292;2022-12-07T10:31:32;55.07;;;29.83;;
22929;SDS011;11630;42.660;23.292;2022-12-07T10:34:03;51.30;;;29.23;;
22929;SDS011;11630;42.660;23.292;2022-12-07T10:36:35;54.80;;;29.43;;
22929;SDS011;11630;42.660;23.292;2022-12-07T10:41:53;46.77;;;28.10;;
22929;SDS011;11630;42.660;23.292;2022-12-07T10:44:22;51.63;;;25.50;;
22929;SDS011;11630;42.660;23.292;2022-12-07T10:47:01;42.37;;;25.50;;
22929;SDS011;11630;42.660;23.292;2022-12-07T10:50:00;44.00;;;26.53;;
22929;SDS011;11630;42.660;23.292;2022-12-07T11:00:58;32.97;;;21.73;;
22929;SDS011;11630;42.660;23.292;2022-12-07T11:23:30;35.90;;;20.50;;
22929;SDS011;11630;42.660;23.292;2022-12-07T11:32:07;35.63;;;21.00;;
22929;SDS011;11630;42.660;23.292;2022-12-07T11:35:08;35.73;;;20.53;;
22929;SDS011;11630;42.660;23.292;2022-12-07T11:37:57;37.57;;;21.47;;
22929;SDS011;11630;42.660;23.292;2022-12-07T11:40:32;41.07;;;22.73;;
22929;SDS011;11630;42.660;23.292;2022-12-07T11:43:18;40.80;;;23.60;;
22929;SDS011;11630;42.660;23.292;2022-12-07T11:46:04;29.73;;;16.87;;
22929;SDS011;11630;42.660;23.292;2022-12-07T11:48:55;28.40;;;16.03;;
22929;SDS011;11630;42.660;23.292;2022-12-07T11:51:42;30.87;;;18.20;;
22929;SDS011;11630;42.660;23.292;2022-12-07T11:54:24;32.33;;;16.67;;
22929;SDS011;11630;42.660;23.292;2022-12-07T11:56:54;28.27;;;17.03;;
22929;SDS011;11630;42.660;23.292;2022-12-07T11:59:28;34.23;;;17.00;;
22929;SDS011;11630;42.660;23.292;2022-12-07T12:02:14;30.67;;;17.90;;
22929;SDS011;11630;42.660;23.292;2022-12-07T12:04:49;34.80;;;18.40;;
22929;SDS011;11630;42.660;23.292;2022-12-07T12:07:24;24.77;;;16.77;;
22929;SDS011;11630;42.660;23.292;2022-12-07T12:18:53;34.53;;;18.70;;
22929;SDS011;11630;42.660;23.292;2022-12-07T12:20:46;30.73;;;18.30;;
22929;SDS011;11630;42.660;23.292;2022-12-07T12:26:15;33.27;;;20.10;;
22929;SDS011;11630;42.660;23.292;2022-12-07T12:28:50;35.93;;;19.33;;
22929;SDS011;11630;42.660;23.292;2022-12-07T12:36:53;33.27;;;17.47;;
22929;SDS011;11630;42.660;23.292;2022-12-07T12:39:27;24.57;;;15.00;;
22929;SDS011;11630;42.660;23.292;2022-12-07T12:41:58;36.53;;;17.83;;
22929;SDS011;11630;42.660;23.292;2022-12-07T12:47:03;30.70;;;16.37;;
22929;SDS011;11630;42.660;23.292;2022-12-07T12:49:35;28.43;;;17.00;;
22929;SDS011;11630;42.660;23.292;2022-12-07T12:55:26;42.63;;;17.63;;
22929;SDS011;11630;42.660;23.292;2022-12-07T12:57:39;27.37;;;16.57;;
22929;SDS011;11630;42.660;23.292;2022-12-07T13:00:17;28.00;;;16.37;;
22929;SDS011;11630;42.660;23.292;2022-12-07T13:02:54;34.70;;;16.10;;
22929;SDS011;11630;42.660;23.292;2022-12-07T13:05:26;34.83;;;17.00;;
22929;SDS011;11630;42.660;23.292;2022-12-07T13:10:34;34.00;;;17.17;;
22929;SDS011;11630;42.660;23.292;2022-12-07T13:15:49;31.13;;;16.57;;
22929;SDS011;11630;42.660;23.292;2022-12-07T13:29:21;28.40;;;14.93;;
22929;SDS011;11630;42.660;23.292;2022-12-07T13:31:49;30.20;;;15.80;;
22929;SDS011;11630;42.660;23.292;2022-12-07T13:34:28;32.87;;;16.23;;
22929;SDS011;11630;42.660;23.292;2022-12-07T13:37:24;38.53;;;15.93;;
22929;SDS011;11630;42.660;23.292;2022-12-07T13:39:51;33.47;;;15.90;;
22929;SDS011;11630;42.660;23.292;2022-12-07T13:42:29;26.30;;;15.70;;
22929;SDS011;11630;42.660;23.292;2022-12-07T13:45:16;25.40;;;15.27;;
22929;SDS011;11630;42.660;23.292;2022-12-07T13:47:51;29.17;;;14.90;;
22929;SDS011;11630;42.660;23.292;2022-12-07T13:50:25;26.40;;;14.03;;
22929;SDS011;11630;42.660;23.292;2022-12-07T13:52:58;25.63;;;13.33;;
22929;SDS011;11630;42.660;23.292;2022-12-07T13:55:30;23.07;;;13.27;;
22929;SDS011;11630;42.660;23.292;2022-12-07T13:58:01;31.00;;;13.67;;
22929;SDS011;11630;42.660;23.292;2022-12-07T14:00:31;24.33;;;14.27;;
22929;SDS011;11630;42.660;23.292;2022-12-07T14:05:44;24.57;;;13.90;;
22929;SDS011;11630;42.660;23.292;2022-12-07T14:16:04;25.23;;;13.03;;
22929;SDS011;11630;42.660;23.292;2022-12-07T14:23:42;29.43;;;13.73;;
22929;SDS011;11630;42.660;23.292;2022-12-07T14:26:14;34.83;;;14.97;;
22929;SDS011;11630;42.660;23.292;2022-12-07T14:28:49;27.00;;;14.93;;
22929;SDS011;11630;42.660;23.292;2022-12-07T14:31:23;56.23;;;17.23;;
22929;SDS011;11630;42.660;23.292;2022-12-07T14:33:54;36.13;;;16.67;;
22929;SDS011;11630;42.660;23.292;2022-12-07T14:36:25;41.00;;;15.47;;
22929;SDS011;11630;42.660;23.292;2022-12-07T14:38:57;35.23;;;15.87;;
22929;SDS011;11630;42.660;23.292;2022-12-07T14:41:28;27.67;;;15.20;;
22929;SDS011;11630;42.660;23.292;2022-12-07T14:44:14;33.17;;;16.13;;
22929;SDS011;11630;42.660;23.292;2022-12-07T14:46:47;36.97;;;17.10;;
22929;SDS011;11630;42.660;23.292;2022-12-07T14:49:19;32.23;;;17.07;;
22929;SDS011;11630;42.660;23.292;2022-12-07T14:51:49;55.80;;;16.57;;
22929;SDS011;11630;42.660;23.292;2022-12-07T14:54:21;57.13;;;17.27;;
22929;SDS011;11630;42.660;23.292;2022-12-07T14:56:53;60.83;;;17.43;;
22929;SDS011;11630;42.660;23.292;2022-12-07T14:59:24;43.93;;;16.07;;
22929;SDS011;11630;42.660;23.292;2022-12-07T15:01:54;55.17;;;18.53;;
22929;SDS011;11630;42.660;23.292;2022-12-07T15:04:25;49.10;;;17.63;;
22929;SDS011;11630;42.660;23.292;2022-12-07T15:06:59;45.97;;;18.83;;
22929;SDS011;11630;42.660;23.292;2022-12-07T15:09:31;62.90;;;19.87;;
22929;SDS011;11630;42.660;23.292;2022-12-07T15:12:02;48.10;;;24.87;;
22929;SDS011;11630;42.660;23.292;2022-12-07T15:14:34;56.63;;;21.83;;
22929;SDS011;11630;42.660;23.292;2022-12-07T15:17:05;87.57;;;24.87;;
22929;SDS011;11630;42.660;23.292;2022-12-07T15:19:36;57.97;;;21.07;;
22929;SDS011;11630;42.660;23.292;2022-12-07T15:22:07;66.20;;;22.37;;
22929;SDS011;11630;42.660;23.292;2022-12-07T15:24:38;58.03;;;21.10;;
22929;SDS011;11630;42.660;23.292;2022-12-07T15:27:08;75.07;;;26.57;;
22929;SDS011;11630;42.660;23.292;2022-12-07T15:29:39;61.87;;;19.77;;
22929;SDS011;11630;42.660;23.292;2022-12-07T15:32:09;60.27;;;18.03;;
22929;SDS011;11630;42.660;23.292;2022-12-07T15:34:39;35.60;;;17.40;;
22929;SDS011;11630;42.660;23.292;2022-12-07T15:37:10;41.50;;;19.20;;
22929;SDS011;11630;42.660;23.292;2022-12-07T15:39:41;54.50;;;17.97;;
22929;SDS011;11630;42.660;23.292;2022-12-07T15:42:11;44.33;;;18.67;;
22929;SDS011;11630;42.660;23.292;2022-12-07T15:44:42;47.47;;;17.23;;
22929;SDS011;11630;42.660;23.292;2022-12-07T15:47:32;43.60;;;19.23;;
22929;SDS011;11630;42.660;23.292;2022-12-07T15:50:06;34.60;;;19.27;;
22929;SDS011;11630;42.660;23.292;2022-12-07T15:52:38;44.37;;;24.47;;
22929;SDS011;11630;42.660;23.292;2022-12-07T15:55:09;50.70;;;22.23;;
22929;SDS011;11630;42.660;23.292;2022-12-07T15:57:42;48.13;;;22.90;;
22929;SDS011;11630;42.660;23.292;2022-12-07T16:00:17;49.77;;;21.00;;
22929;SDS011;11630;42.660;23.292;2022-12-07T16:02:49;47.77;;;20.40;;
22929;SDS011;11630;42.660;23.292;2022-12-07T16:05:20;62.40;;;23.30;;
22929;SDS011;11630;42.660;23.292;2022-12-07T16:07:51;59.97;;;22.07;;
22929;SDS011;11630;42.660;23.292;2022-12-07T16:10:22;60.77;;;21.57;;
22929;SDS011;11630;42.660;23.292;2022-12-07T16:12:53;52.03;;;22.90;;
22929;SDS011;11630;42.660;23.292;2022-12-07T16:15:24;57.93;;;22.13;;
22929;SDS011;11630;42.660;23.292;2022-12-07T16:17:55;46.70;;;19.80;;
22929;SDS011;11630;42.660;23.292;2022-12-07T16:20:25;39.80;;;20.07;;
22929;SDS011;11630;42.660;23.292;2022-12-07T16:22:56;55.50;;;21.33;;
22929;SDS011;11630;42.660;23.292;2022-12-07T16:25:26;44.10;;;19.73;;
22929;SDS011;11630;42.660;23.292;2022-12-07T16:27:56;43.57;;;20.80;;
22929;SDS011;11630;42.660;23.292;2022-12-07T16:30:29;56.97;;;21.97;;
22929;SDS011;11630;42.660;23.292;2022-12-07T16:33:00;69.93;;;23.60;;
22929;SDS011;11630;42.660;23.292;2022-12-07T16:35:30;54.60;;;23.33;;